createdAt,value
2019-04-06T00:00:31.259Z,13.64
2019-04-06T00:01:31.293Z,13.68
2019-04-06T00:03:25.679Z,13.68
2019-04-06T00:04:25.501Z,13.68
2019-04-06T00:06:18.655Z,13.65
2019-04-06T00:07:18.673Z,13.70
2019-04-06T00:09:11.827Z,13.62
2019-04-06T00:10:11.870Z,13.64
2019-04-06T00:12:05.006Z,13.67
2019-04-06T00:13:05.011Z,13.67
2019-04-06T00:14:58.222Z,13.68
2019-04-06T00:15:58.229Z,13.71
2019-04-06T00:17:51.381Z,13.68
2019-04-06T00:18:51.383Z,13.61
2019-04-06T00:20:44.514Z,13.70
2019-04-06T00:21:44.546Z,13.70
2019-04-06T00:23:37.686Z,13.67
2019-04-06T00:24:37.704Z,13.67
2019-04-06T00:26:30.845Z,13.61
2019-04-06T00:27:30.866Z,13.67
2019-04-06T00:29:24.016Z,13.64
2019-04-06T00:30:24.025Z,13.67
2019-04-06T00:32:17.266Z,13.62
2019-04-06T00:33:17.293Z,13.64
2019-04-06T00:35:10.414Z,13.62
2019-04-06T00:36:10.460Z,13.61
2019-04-06T00:38:03.586Z,13.64
2019-04-06T00:39:03.602Z,13.67
2019-04-06T00:40:56.755Z,13.65
2019-04-06T00:41:56.762Z,13.61
2019-04-06T00:43:49.961Z,13.62
2019-04-06T00:44:50.025Z,13.76
2019-04-06T00:46:43.233Z,13.71
2019-04-06T00:47:43.229Z,13.62
2019-04-06T00:49:36.384Z,13.68
2019-04-06T00:50:36.408Z,13.64
2019-04-06T00:52:29.702Z,13.64
2019-04-06T00:53:29.714Z,13.64
2019-04-06T00:55:22.882Z,13.62
2019-04-06T00:56:22.932Z,13.61
2019-04-06T00:58:16.072Z,13.62
2019-04-06T00:59:16.065Z,13.54
2019-04-06T01:01:09.263Z,13.67
2019-04-06T01:02:09.260Z,13.64
2019-04-06T01:04:02.407Z,13.62
2019-04-06T01:05:02.398Z,13.60
2019-04-06T01:06:55.582Z,13.62
2019-04-06T01:07:55.608Z,13.64
2019-04-06T01:09:48.757Z,13.61
2019-04-06T01:13:36.214Z,13.64
2019-04-06T01:14:36.222Z,13.64
2019-04-06T01:16:29.386Z,13.68
2019-04-06T01:17:29.399Z,13.65
2019-04-06T01:19:22.589Z,13.71
2019-04-06T01:20:22.586Z,13.64
2019-04-06T01:22:15.771Z,13.70
2019-04-06T01:23:15.781Z,13.62
2019-04-06T01:25:08.939Z,13.73
2019-04-06T01:26:08.944Z,13.73
2019-04-06T01:28:02.080Z,13.71
2019-04-06T01:29:02.103Z,13.61
2019-04-06T01:30:55.260Z,13.64
2019-04-06T01:31:55.262Z,13.64
2019-04-06T01:33:48.514Z,13.64
2019-04-06T01:34:48.532Z,13.65
2019-04-06T01:36:41.750Z,13.64
2019-04-06T01:37:41.693Z,13.58
2019-04-06T01:39:34.953Z,13.68
2019-04-06T01:40:34.944Z,13.64
2019-04-06T01:42:28.095Z,13.67
2019-04-06T01:43:28.109Z,13.68
2019-04-06T01:45:35.685Z,13.62
2019-04-06T01:46:35.642Z,13.62
2019-04-06T01:48:28.831Z,13.58
2019-04-06T01:49:28.827Z,13.55
2019-04-06T01:51:21.999Z,13.58
2019-04-06T01:52:22.087Z,13.50
2019-04-06T01:54:15.174Z,13.47
2019-04-06T01:55:15.175Z,13.40
2019-04-06T01:57:08.425Z,13.40
2019-04-06T01:58:08.431Z,13.39
2019-04-06T02:00:01.699Z,13.39
2019-04-06T02:01:01.706Z,13.39
2019-04-06T02:02:54.883Z,13.40
2019-04-06T02:03:54.933Z,13.47
2019-04-06T02:05:48.109Z,13.43
2019-04-06T02:06:48.119Z,13.37
2019-04-06T02:08:58.589Z,13.33
2019-04-06T02:09:58.593Z,13.28
2019-04-06T02:11:51.776Z,13.36
2019-04-06T02:12:51.746Z,13.26
2019-04-06T02:14:44.956Z,13.26
2019-04-06T02:15:44.902Z,13.23
2019-04-06T02:17:38.060Z,13.28
2019-04-06T02:18:38.080Z,13.26
2019-04-06T02:20:31.235Z,13.24
2019-04-06T02:21:31.245Z,13.19
2019-04-06T02:23:24.716Z,13.21
2019-04-06T02:24:24.508Z,13.19
2019-04-06T02:26:24.650Z,13.17
2019-04-06T02:27:17.572Z,13.17
2019-04-06T02:29:10.775Z,13.13
2019-04-06T02:30:10.774Z,13.08
2019-04-06T02:32:03.959Z,13.03
2019-04-06T02:33:03.964Z,13.08
2019-04-06T02:34:57.140Z,13.08
2019-04-06T02:35:57.145Z,13.11
2019-04-06T02:37:50.316Z,13.06
2019-04-06T02:38:50.330Z,12.99
2019-04-06T02:40:43.508Z,12.93
2019-04-06T02:41:43.516Z,12.91
2019-04-06T02:43:36.672Z,12.95
2019-04-06T02:44:36.689Z,12.99
2019-04-06T02:46:31.214Z,13.01
2019-04-06T02:47:29.858Z,12.98
2019-04-06T02:49:23.043Z,13.05
2019-04-06T02:50:23.150Z,12.88
2019-04-06T02:52:16.260Z,12.94
2019-04-06T02:53:16.278Z,13.02
2019-04-06T02:55:09.540Z,12.93
2019-04-06T02:56:09.448Z,12.94
2019-04-06T02:58:02.928Z,12.94
2019-04-06T02:59:02.676Z,12.98
2019-04-06T03:00:55.860Z,12.99
2019-04-06T03:01:55.865Z,12.87
2019-04-06T03:03:49.072Z,12.93
2019-04-06T03:04:49.118Z,12.83
2019-04-06T03:06:56.653Z,12.80
2019-04-06T03:07:56.624Z,12.75
2019-04-06T03:09:49.798Z,12.76
2019-04-06T03:10:49.835Z,12.83
2019-04-06T03:12:43.015Z,12.78
2019-04-06T03:13:43.030Z,12.81
2019-04-06T03:15:36.221Z,12.83
2019-04-06T03:16:36.277Z,12.78
2019-04-06T03:18:29.443Z,12.80
2019-04-06T03:19:29.456Z,12.80
2019-04-06T03:21:22.647Z,12.78
2019-04-06T03:22:22.649Z,12.78
2019-04-06T03:24:16.089Z,12.78
2019-04-06T03:25:15.866Z,12.80
2019-04-06T03:27:09.050Z,12.78
2019-04-06T03:28:09.038Z,12.73
2019-04-06T03:30:02.431Z,12.78
2019-04-06T03:31:02.228Z,12.80
2019-04-06T03:32:55.638Z,12.75
2019-04-06T03:33:55.384Z,12.75
2019-04-06T03:35:50.457Z,12.72
2019-04-06T03:36:48.581Z,12.73
2019-04-06T03:38:41.733Z,12.70
2019-04-06T03:39:41.759Z,12.69
2019-04-06T03:41:35.097Z,12.68
2019-04-06T03:42:34.909Z,12.69
2019-04-06T03:44:28.097Z,12.61
2019-04-06T03:45:28.257Z,12.61
2019-04-06T03:47:21.283Z,12.68
2019-04-06T03:48:21.286Z,12.73
2019-04-06T03:50:14.440Z,12.66
2019-04-06T03:51:14.477Z,12.69
2019-04-06T03:53:07.671Z,12.61
2019-04-06T03:54:07.686Z,12.63
2019-04-06T03:56:00.834Z,12.61
2019-04-06T03:57:13.722Z,12.61
2019-04-06T03:58:54.032Z,12.55
2019-04-06T03:59:54.141Z,12.65
2019-04-06T04:01:47.221Z,12.63
2019-04-06T04:02:47.238Z,12.55
2019-04-06T04:04:40.397Z,12.54
2019-04-06T04:05:40.418Z,12.51
2019-04-06T04:07:33.594Z,12.55
2019-04-06T04:08:33.590Z,12.55
2019-04-06T04:10:26.773Z,12.62
2019-04-06T04:11:26.785Z,12.55
2019-04-06T04:13:20.091Z,12.53
2019-04-06T04:14:19.964Z,12.55
2019-04-06T04:16:13.159Z,12.55
2019-04-06T04:17:13.170Z,12.54
2019-04-06T04:19:06.375Z,12.58
2019-04-06T04:20:06.640Z,12.48
2019-04-06T04:21:59.515Z,12.55
2019-04-06T04:22:59.718Z,12.55
2019-04-06T04:24:52.693Z,12.55
2019-04-06T04:25:52.700Z,12.55
2019-04-06T04:27:45.895Z,12.53
2019-04-06T04:28:45.891Z,12.65
2019-04-06T04:30:39.039Z,12.61
2019-04-06T04:31:39.040Z,12.62
2019-04-06T04:33:32.239Z,12.68
2019-04-06T04:34:32.235Z,12.65
2019-04-06T04:36:25.592Z,12.68
2019-04-06T04:37:25.413Z,12.58
2019-04-06T04:39:18.584Z,12.62
2019-04-06T04:40:18.810Z,12.62
2019-04-06T04:42:29.237Z,12.57
2019-04-06T04:43:29.235Z,12.63
2019-04-06T04:45:22.418Z,12.62
2019-04-06T04:46:22.417Z,12.63
2019-04-06T04:48:15.764Z,12.66
2019-04-06T04:49:15.596Z,12.63
2019-04-06T04:51:08.968Z,12.68
2019-04-06T04:52:08.797Z,12.63
2019-04-06T04:54:02.001Z,12.54
2019-04-06T04:55:01.973Z,12.53
2019-04-06T04:56:55.145Z,12.50
2019-04-06T04:57:55.145Z,12.53
2019-04-06T04:59:48.356Z,12.51
2019-04-06T05:00:48.328Z,12.57
2019-04-06T05:03:02.481Z,12.68
2019-04-06T05:03:41.482Z,12.63
2019-04-06T05:05:34.649Z,12.62
2019-04-06T05:06:34.710Z,12.63
2019-04-06T05:08:27.811Z,12.66
2019-04-06T05:09:27.841Z,12.65
2019-04-06T05:11:21.036Z,12.68
2019-04-06T05:12:21.228Z,12.69
2019-04-06T05:14:14.203Z,12.73
2019-04-06T05:15:14.207Z,12.69
2019-04-06T05:17:07.367Z,12.68
2019-04-06T05:18:07.393Z,12.68
2019-04-06T05:20:14.858Z,12.69
2019-04-06T05:21:14.921Z,12.69
2019-04-06T05:23:08.043Z,12.70
2019-04-06T05:24:08.045Z,12.73
2019-04-06T05:26:01.193Z,12.76
2019-04-06T05:27:01.204Z,12.73
2019-04-06T05:28:54.447Z,12.81
2019-04-06T05:29:54.445Z,12.83
2019-04-06T05:31:47.596Z,12.91
2019-04-06T05:32:47.615Z,12.81
2019-04-06T05:34:40.763Z,12.98
2019-04-06T05:35:40.765Z,12.98
2019-04-06T05:37:33.919Z,12.94
2019-04-06T05:38:33.933Z,12.99
2019-04-06T05:40:27.084Z,13.12
2019-04-06T05:41:27.086Z,13.08
2019-04-06T05:43:20.301Z,13.05
2019-04-06T05:44:20.290Z,13.08
2019-04-06T05:46:13.499Z,13.13
2019-04-06T05:47:13.525Z,13.17
2019-04-06T05:49:06.678Z,13.13
2019-04-06T05:50:06.687Z,13.19
2019-04-06T05:51:59.915Z,13.26
2019-04-06T05:52:59.940Z,13.13
2019-04-06T05:54:53.142Z,13.20
2019-04-06T05:55:53.222Z,13.16
2019-04-06T05:57:46.292Z,13.23
2019-04-06T05:58:46.303Z,13.20
2019-04-06T06:00:40.587Z,13.24
2019-04-06T06:01:40.521Z,13.19
2019-04-06T06:03:32.676Z,13.26
2019-04-06T06:04:32.689Z,13.24
2019-04-06T06:06:25.941Z,13.23
2019-04-06T06:07:25.932Z,13.24
2019-04-06T06:09:19.122Z,13.31
2019-04-06T06:10:19.100Z,13.33
2019-04-06T06:12:12.286Z,13.36
2019-04-06T06:13:12.313Z,13.28
2019-04-06T06:15:05.485Z,13.24
2019-04-06T06:16:05.485Z,13.31
2019-04-06T06:17:58.752Z,13.39
2019-04-06T06:18:58.779Z,13.37
2019-04-06T06:20:51.934Z,13.33
2019-04-06T06:21:51.951Z,13.31
2019-04-06T06:23:45.322Z,13.40
2019-04-06T06:24:45.164Z,13.26
2019-04-06T06:26:38.320Z,13.42
2019-04-06T06:27:38.360Z,13.42
2019-04-06T06:29:31.528Z,13.40
2019-04-06T06:30:31.532Z,13.40
2019-04-06T06:32:24.813Z,13.49
2019-04-06T06:33:25.501Z,13.52
2019-04-06T06:35:29.558Z,13.57
2019-04-06T06:36:29.558Z,13.62
2019-04-06T06:38:22.766Z,13.65
2019-04-06T06:39:22.880Z,13.67
2019-04-06T06:41:15.935Z,13.60
2019-04-06T06:42:15.966Z,13.54
2019-04-06T06:44:09.179Z,13.65
2019-04-06T06:45:09.140Z,13.64
2019-04-06T06:47:02.294Z,13.65
2019-04-06T06:48:02.310Z,13.55
2019-04-06T06:50:12.797Z,13.55
2019-04-06T06:51:13.063Z,13.57
2019-04-06T06:53:06.285Z,13.65
2019-04-06T06:54:07.450Z,13.61
2019-04-06T06:55:59.209Z,13.67
2019-04-06T06:56:59.187Z,13.70
2019-04-06T06:59:06.700Z,13.70
2019-04-06T07:00:06.718Z,13.79
2019-04-06T07:02:00.099Z,13.85
2019-04-06T07:02:59.982Z,13.75
2019-04-06T07:04:53.101Z,13.87
2019-04-06T07:05:53.259Z,13.80
2019-04-06T07:07:46.334Z,13.78
2019-04-06T07:08:46.279Z,13.87
2019-04-06T07:10:39.447Z,14.05
2019-04-06T07:11:39.460Z,14.01
2019-04-06T07:13:32.802Z,14.08
2019-04-06T07:14:32.701Z,14.19
2019-04-06T07:16:25.955Z,14.16
2019-04-06T07:17:25.959Z,14.19
2019-04-06T07:19:19.118Z,14.16
2019-04-06T07:20:19.146Z,14.13
2019-04-06T07:22:12.293Z,14.30
2019-04-06T07:23:12.297Z,14.20
2019-04-06T07:26:46.928Z,14.37
2019-04-06T07:27:39.486Z,14.44
2019-04-06T07:29:32.655Z,14.56
2019-04-06T07:30:32.676Z,14.59
2019-04-06T07:32:26.017Z,14.55
2019-04-06T07:33:25.838Z,14.55
2019-04-06T07:35:19.001Z,14.52
2019-04-06T07:36:19.012Z,14.62
2019-04-06T07:38:12.198Z,14.73
2019-04-06T07:39:12.243Z,14.82
2019-04-06T07:41:05.379Z,14.89
2019-04-06T07:42:05.404Z,14.94
2019-04-06T07:43:58.557Z,15.07
2019-04-06T07:44:58.563Z,15.11
2019-04-06T07:46:51.977Z,15.17
2019-04-06T07:47:51.824Z,15.11
2019-04-06T07:49:46.353Z,15.12
2019-04-06T07:50:45.009Z,15.10
2019-04-06T07:52:38.191Z,15.05
2019-04-06T07:53:38.402Z,15.10
2019-04-06T07:55:31.342Z,15.25
2019-04-06T07:58:24.822Z,15.39
2019-04-06T07:59:24.883Z,15.55
2019-04-06T08:01:17.760Z,15.90
2019-04-06T08:02:17.770Z,16.05
2019-04-06T08:04:10.908Z,16.13
2019-04-06T08:05:10.932Z,16.17
2019-04-06T08:07:04.135Z,16.40
2019-04-06T08:08:04.162Z,16.49
2019-04-06T08:09:57.320Z,16.64
2019-04-06T08:10:57.338Z,16.55
2019-04-06T08:12:50.526Z,16.79
2019-04-06T08:13:50.544Z,16.98
2019-04-06T08:15:43.705Z,17.02
2019-04-06T08:16:43.740Z,17.16
2019-04-06T08:18:36.933Z,17.49
2019-04-06T08:19:36.924Z,17.95
2019-04-06T08:21:30.428Z,18.27
2019-04-06T08:22:30.164Z,18.61
2019-04-06T08:24:23.340Z,18.71
2019-04-06T08:25:23.361Z,18.94
2019-04-06T08:27:16.502Z,18.81
2019-04-06T08:28:16.575Z,19.15
2019-04-06T08:30:09.715Z,19.53
2019-04-06T08:31:09.719Z,19.67
2019-04-06T08:33:03.085Z,20.55
2019-04-06T08:34:02.892Z,20.42
2019-04-06T08:35:56.080Z,19.96
2019-04-06T08:36:56.070Z,20.24
2019-04-06T08:38:49.261Z,21.63
2019-04-06T08:39:49.336Z,22.44
2019-04-06T08:41:42.391Z,23.14
2019-04-06T08:42:42.500Z,23.40
2019-04-06T08:44:35.604Z,24.21
2019-04-06T08:45:35.614Z,24.63
2019-04-06T08:47:28.795Z,25.06
2019-04-06T08:48:28.806Z,25.73
2019-04-06T08:50:21.979Z,26.26
2019-04-06T08:51:21.983Z,26.41
2019-04-06T08:53:15.245Z,27.11
2019-04-06T08:54:15.221Z,27.48
2019-04-06T08:56:08.377Z,26.64
2019-04-06T08:57:08.403Z,26.44
2019-04-06T08:59:10.501Z,27.73
2019-04-06T09:00:01.624Z,27.81
2019-04-06T09:01:54.825Z,26.67
2019-04-06T09:02:55.005Z,26.59
2019-04-06T09:04:48.050Z,25.51
2019-04-06T09:05:48.043Z,26.16
2019-04-06T09:08:41.240Z,26.59
2019-04-06T09:10:34.419Z,25.70
2019-04-06T09:11:34.431Z,25.51
2019-04-06T09:13:41.932Z,26.01
2019-04-06T09:14:41.940Z,25.52
2019-04-06T09:16:35.117Z,24.51
2019-04-06T09:17:35.153Z,24.53
2019-04-06T09:19:28.507Z,24.00
2019-04-06T09:20:28.332Z,23.26
2019-04-06T09:22:21.515Z,24.03
2019-04-06T09:23:21.527Z,24.51
2019-04-06T09:25:14.741Z,23.95
2019-04-06T09:26:14.723Z,23.56
2019-04-06T09:28:07.893Z,22.84
2019-04-06T09:32:21.051Z,22.93
2019-04-06T09:33:20.813Z,22.96
2019-04-06T09:35:28.848Z,22.71
2019-04-06T09:36:28.540Z,22.71
2019-04-06T09:38:21.671Z,23.54
2019-04-06T09:39:21.755Z,24.29
2019-04-06T09:41:14.905Z,25.70
2019-04-06T09:42:14.933Z,26.01
2019-04-06T09:44:08.259Z,26.33
2019-04-06T09:45:07.960Z,26.51
2019-04-06T09:47:01.123Z,26.68
2019-04-06T09:48:01.148Z,26.24
2019-04-06T09:49:54.302Z,26.30
2019-04-06T09:50:54.308Z,26.55
2019-04-06T09:52:47.462Z,26.33
2019-04-06T09:53:47.550Z,26.22
2019-04-06T09:55:58.653Z,27.03
2019-04-06T09:56:58.069Z,26.55
2019-04-06T09:59:08.575Z,26.96
2019-04-06T10:00:08.582Z,27.00
2019-04-06T10:02:01.752Z,27.19
2019-04-06T10:03:01.766Z,27.07
2019-04-06T10:04:55.128Z,27.94
2019-04-06T10:05:55.122Z,28.15
2019-04-06T10:07:48.184Z,28.28
2019-04-06T10:08:48.194Z,28.25
2019-04-06T10:10:41.624Z,28.78
2019-04-06T10:11:41.443Z,29.15
2019-04-06T10:13:34.578Z,28.94
2019-04-06T10:14:34.621Z,29.39
2019-04-06T10:16:28.078Z,28.62
2019-04-06T10:17:28.046Z,28.60
2019-04-06T10:19:21.036Z,29.47
2019-04-06T10:20:21.031Z,29.67
2019-04-06T10:22:14.279Z,30.03
2019-04-06T10:23:14.664Z,29.81
2019-04-06T10:25:07.674Z,30.06
2019-04-06T10:26:07.729Z,28.65
2019-04-06T10:28:00.718Z,28.03
2019-04-06T10:29:00.903Z,29.02
2019-04-06T10:30:54.249Z,28.45
2019-04-06T10:31:53.956Z,28.43
2019-04-06T10:33:47.279Z,29.76
2019-04-06T10:34:47.153Z,29.24
2019-04-06T10:36:40.639Z,29.58
2019-04-06T10:37:40.411Z,29.00
2019-04-06T10:39:33.603Z,29.74
2019-04-06T10:40:33.609Z,29.94
2019-04-06T10:42:28.482Z,31.20
2019-04-06T10:43:26.914Z,30.58
2019-04-06T10:45:20.261Z,28.33
2019-04-06T10:46:20.352Z,28.62
2019-04-06T10:48:13.282Z,29.09
2019-04-06T10:49:13.248Z,28.80
2019-04-06T10:51:06.463Z,29.81
2019-04-06T10:52:06.488Z,30.16
2019-04-06T10:54:18.091Z,29.42
2019-04-06T10:55:18.389Z,28.60
2019-04-06T10:57:11.301Z,29.15
2019-04-06T10:58:11.307Z,29.32
2019-04-06T11:00:18.842Z,29.76
2019-04-06T11:01:18.857Z,30.05
2019-04-06T11:03:12.102Z,30.29
2019-04-06T11:04:12.110Z,30.81
2019-04-06T11:06:05.367Z,30.16
2019-04-06T11:07:05.470Z,30.78
2019-04-06T11:08:58.781Z,30.65
2019-04-06T11:09:58.839Z,30.98
2019-04-06T11:12:09.137Z,32.05
2019-04-06T11:13:09.173Z,32.09
2019-04-06T11:15:02.444Z,31.82
2019-04-06T11:16:02.669Z,31.04
2019-04-06T11:17:55.601Z,31.44
2019-04-06T11:18:55.761Z,31.37
2019-04-06T11:20:48.869Z,31.70
2019-04-06T11:21:48.896Z,30.65
2019-04-06T11:23:42.105Z,31.17
2019-04-06T11:24:42.101Z,31.35
2019-04-06T11:26:52.639Z,30.01
2019-04-06T11:27:52.803Z,29.92
2019-04-06T11:29:45.878Z,30.05
2019-04-06T11:30:45.883Z,29.76
2019-04-06T11:32:39.121Z,29.96
2019-04-06T11:33:39.159Z,30.39
2019-04-06T11:35:32.421Z,30.01
2019-04-06T11:36:32.416Z,30.38
2019-04-06T11:38:25.629Z,30.78
2019-04-06T11:39:25.606Z,31.08
2019-04-06T11:41:18.919Z,31.00
2019-04-06T11:42:19.070Z,30.65
2019-04-06T11:44:12.046Z,29.13
2019-04-06T11:45:12.141Z,30.39
2019-04-06T11:47:05.214Z,30.99
2019-04-06T11:48:05.438Z,30.67
2019-04-06T11:49:58.440Z,29.95
2019-04-06T11:50:58.452Z,30.49
2019-04-06T11:52:51.641Z,32.26
2019-04-06T11:53:51.694Z,32.34
2019-04-06T11:55:45.412Z,30.18
2019-04-06T11:56:44.940Z,30.92
2019-04-06T11:58:38.168Z,30.69
2019-04-06T11:59:38.179Z,28.53
2019-04-06T12:01:31.416Z,28.12
2019-04-06T12:02:31.434Z,27.43
2019-04-06T12:04:24.641Z,26.27
2019-04-06T12:05:24.649Z,25.66
2019-04-06T12:07:17.890Z,25.14
2019-04-06T12:08:17.866Z,25.12
2019-04-06T12:10:11.048Z,24.24
2019-04-06T12:11:11.072Z,24.14
2019-04-06T12:13:04.387Z,23.99
2019-04-06T12:14:04.407Z,24.06
2019-04-06T12:15:57.534Z,23.85
2019-04-06T12:16:57.571Z,23.54
2019-04-06T12:19:05.125Z,23.26
2019-04-06T12:20:05.209Z,23.23
2019-04-06T12:21:58.290Z,23.07
2019-04-06T12:22:58.302Z,23.13
2019-04-06T12:24:51.481Z,22.86
2019-04-06T12:25:51.553Z,22.84
2019-04-06T12:27:44.702Z,22.86
2019-04-06T12:28:44.721Z,22.74
2019-04-06T12:30:53.261Z,22.38
2019-04-06T12:31:53.291Z,22.44
2019-04-06T12:33:46.472Z,22.44
2019-04-06T12:34:46.483Z,22.28
2019-04-06T12:36:39.678Z,22.52
2019-04-06T12:37:39.710Z,22.47
2019-04-06T12:39:52.261Z,22.38
2019-04-06T12:40:44.600Z,22.37
2019-04-06T12:42:37.798Z,22.26
2019-04-06T12:43:37.817Z,22.38
2019-04-06T12:45:30.998Z,22.30
2019-04-06T12:46:30.997Z,22.46
2019-04-06T12:48:24.207Z,22.19
2019-04-06T12:49:24.545Z,22.03
2019-04-06T12:51:17.389Z,22.18
2019-04-06T12:52:17.417Z,22.19
2019-04-06T12:54:10.607Z,22.19
2019-04-06T12:55:10.609Z,22.15
2019-04-06T12:57:04.112Z,22.08
2019-04-06T12:58:04.453Z,21.97
2019-04-06T12:59:56.989Z,22.00
2019-04-06T13:00:57.002Z,22.16
2019-04-06T13:03:08.235Z,22.12
2019-04-06T13:04:08.063Z,22.08
2019-04-06T13:06:00.978Z,21.80
2019-04-06T13:07:01.297Z,21.81
2019-04-06T13:08:54.181Z,22.03
2019-04-06T13:09:54.187Z,22.03
2019-04-06T13:11:47.403Z,22.03
2019-04-06T13:12:47.410Z,22.04
2019-04-06T13:14:40.601Z,21.77
2019-04-06T13:15:40.627Z,21.91
2019-04-06T13:17:51.310Z,21.74
2019-04-06T13:18:51.187Z,21.65
2019-04-06T13:20:44.383Z,21.72
2019-04-06T13:21:44.393Z,21.72
2019-04-06T13:23:37.588Z,21.80
2019-04-06T13:24:37.649Z,21.70
2019-04-06T13:26:30.803Z,21.80
2019-04-06T13:27:30.811Z,21.84
2019-04-06T13:29:24.007Z,21.75
2019-04-06T13:30:24.089Z,21.80
2019-04-06T13:32:17.234Z,21.72
2019-04-06T13:33:17.243Z,21.77
2019-04-06T13:35:27.768Z,21.68
2019-04-06T13:36:28.109Z,21.77
2019-04-06T13:38:20.954Z,21.58
2019-04-06T13:39:20.966Z,21.70
2019-04-06T13:41:14.166Z,21.56
2019-04-06T13:42:14.480Z,21.59
2019-04-06T13:44:07.338Z,21.66
2019-04-06T13:45:07.395Z,21.78
2019-04-06T13:47:00.548Z,21.72
2019-04-06T13:48:00.562Z,21.70
2019-04-06T13:50:08.078Z,21.70
2019-04-06T13:51:08.163Z,21.74
2019-04-06T13:53:01.737Z,21.65
2019-04-06T13:54:01.310Z,21.66
2019-04-06T13:55:54.486Z,21.65
2019-04-06T13:56:54.496Z,21.56
2019-04-06T13:58:47.665Z,21.51
2019-04-06T13:59:47.688Z,21.56
2019-04-06T14:01:40.880Z,21.47
2019-04-06T14:02:41.262Z,21.41
2019-04-06T14:04:34.100Z,21.38
2019-04-06T14:05:34.084Z,21.54
2019-04-06T14:07:27.292Z,21.51
2019-04-06T14:08:27.559Z,21.44
2019-04-06T14:10:20.837Z,21.40
2019-04-06T14:11:20.511Z,21.37
2019-04-06T14:13:13.718Z,21.37
2019-04-06T14:14:14.099Z,21.44
2019-04-06T14:16:06.935Z,21.41
2019-04-06T14:17:06.950Z,21.30
2019-04-06T14:19:00.135Z,21.33
2019-04-06T14:20:00.453Z,21.35
2019-04-06T14:21:53.326Z,21.35
2019-04-06T14:22:53.332Z,21.29
2019-04-06T14:24:46.581Z,21.33
2019-04-06T14:25:46.750Z,21.15
2019-04-06T14:27:39.768Z,21.32
2019-04-06T14:28:39.802Z,21.38
2019-04-06T14:30:33.101Z,21.28
2019-04-06T14:31:33.125Z,21.30
2019-04-06T14:33:26.458Z,21.30
2019-04-06T14:34:26.172Z,21.19
2019-04-06T14:36:19.435Z,21.14
2019-04-06T14:37:19.456Z,21.13
2019-04-06T14:39:12.939Z,21.19
2019-04-06T14:40:12.834Z,21.14
2019-04-06T14:42:05.967Z,21.15
2019-04-06T14:43:05.855Z,21.15
2019-04-06T14:44:59.168Z,21.19
2019-04-06T14:45:59.026Z,21.15
2019-04-06T14:47:52.226Z,21.14
2019-04-06T14:48:52.213Z,21.14
2019-04-06T14:50:45.388Z,21.22
2019-04-06T14:51:45.393Z,21.19
2019-04-06T14:53:38.603Z,21.20
2019-04-06T14:54:38.979Z,21.11
2019-04-06T14:56:31.812Z,21.13
2019-04-06T14:57:31.891Z,21.13
2019-04-06T14:59:25.009Z,21.17
2019-04-06T15:00:25.257Z,21.13
2019-04-06T15:02:18.262Z,21.23
2019-04-06T15:03:18.185Z,21.14
2019-04-06T15:05:26.976Z,21.05
2019-04-06T15:06:27.097Z,21.00
2019-04-06T15:08:20.415Z,21.07
2019-04-06T15:09:20.272Z,21.07
2019-04-06T15:11:30.699Z,21.07
2019-04-06T15:12:30.953Z,21.04
2019-04-06T15:14:39.201Z,21.00
2019-04-06T15:15:39.551Z,21.07
2019-04-06T15:17:32.518Z,21.01
2019-04-06T15:18:32.441Z,21.07
2019-04-06T15:20:26.038Z,21.08
2019-04-06T15:21:25.737Z,20.96
2019-04-06T15:23:18.943Z,20.96
2019-04-06T15:24:18.936Z,21.03
2019-04-06T15:26:12.127Z,21.00
2019-04-06T15:27:12.378Z,21.03
2019-04-06T15:29:05.333Z,21.01
2019-04-06T15:30:05.341Z,21.01
2019-04-06T15:31:58.563Z,21.04
2019-04-06T15:32:58.577Z,21.01
2019-04-06T15:34:51.762Z,21.03
2019-04-06T15:35:51.765Z,20.92
2019-04-06T15:37:45.021Z,20.96
2019-04-06T15:38:45.005Z,21.05
2019-04-06T15:40:38.264Z,21.01
2019-04-06T15:41:38.200Z,21.03
2019-04-06T15:43:31.431Z,20.98
2019-04-06T15:44:31.494Z,20.98
2019-04-06T15:46:24.620Z,21.03
2019-04-06T15:47:24.628Z,21.03
2019-04-06T15:49:17.842Z,20.93
2019-04-06T15:50:17.889Z,20.92
2019-04-06T15:52:15.350Z,20.92
2019-04-06T15:53:11.032Z,20.95
2019-04-06T15:55:04.210Z,21.00
2019-04-06T15:56:04.627Z,20.96
2019-04-06T15:57:57.435Z,20.92
2019-04-06T15:58:57.493Z,20.83
2019-04-06T16:00:50.709Z,20.96
2019-04-06T16:01:59.126Z,20.86
2019-04-06T16:03:43.814Z,20.90
2019-04-06T16:04:43.823Z,20.90
2019-04-06T16:06:37.293Z,20.85
2019-04-06T16:07:37.024Z,20.85
2019-04-06T16:09:44.540Z,20.80
2019-04-06T16:10:44.538Z,20.85
2019-04-06T16:13:09.522Z,20.86
2019-04-06T16:14:09.600Z,20.80
2019-04-06T16:16:02.888Z,20.80
2019-04-06T16:17:02.933Z,20.70
2019-04-06T16:18:56.263Z,20.73
2019-04-06T16:19:56.367Z,20.77
2019-04-06T16:21:49.508Z,20.74
2019-04-06T16:22:49.729Z,20.71
2019-04-06T16:24:42.547Z,20.73
2019-04-06T16:25:42.907Z,20.71
2019-04-06T16:27:35.719Z,20.74
2019-04-06T16:28:35.725Z,20.70
2019-04-06T16:30:29.052Z,20.83
2019-04-06T16:31:28.931Z,20.85
2019-04-06T16:33:22.134Z,20.78
2019-04-06T16:34:22.126Z,20.77
2019-04-06T16:36:15.343Z,20.74
2019-04-06T16:37:15.667Z,20.74
2019-04-06T16:39:08.551Z,20.50
2019-04-06T16:40:08.543Z,20.24
2019-04-06T16:42:01.936Z,19.99
2019-04-06T16:43:01.787Z,19.84
2019-04-06T16:44:55.016Z,19.82
2019-04-06T16:45:54.919Z,19.67
2019-04-06T16:47:48.109Z,19.67
2019-04-06T16:48:48.139Z,19.64
2019-04-06T16:50:41.295Z,19.63
2019-04-06T16:51:41.313Z,19.63
2019-04-06T16:53:34.473Z,19.56
2019-04-06T16:54:34.933Z,19.52
2019-04-06T16:56:27.700Z,19.45
2019-04-06T16:57:27.701Z,19.42
2019-04-06T16:59:21.214Z,19.41
2019-04-06T17:00:20.977Z,19.45
2019-04-06T17:02:22.906Z,19.45
2019-04-06T17:03:14.245Z,19.44
2019-04-06T17:05:07.303Z,19.49
2019-04-06T17:06:07.308Z,19.48
2019-04-06T17:08:15.775Z,19.56
2019-04-06T17:11:09.330Z,19.62
2019-04-06T17:12:09.521Z,19.59
2019-04-06T17:14:02.565Z,19.63
2019-04-06T17:15:04.573Z,19.62
2019-04-06T17:16:55.806Z,19.70
2019-04-06T17:17:55.413Z,19.64
2019-04-06T17:19:48.634Z,19.62
2019-04-06T17:20:48.685Z,19.66
2019-04-06T17:22:41.830Z,19.67
2019-04-06T17:23:41.882Z,19.70
2019-04-06T17:25:35.034Z,19.55
2019-04-06T17:26:35.383Z,19.62
2019-04-06T17:28:28.541Z,19.52
2019-04-06T17:29:28.220Z,19.47
2019-04-06T17:31:21.852Z,19.53
2019-04-06T17:32:21.582Z,19.56
2019-04-06T17:34:14.713Z,19.55
2019-04-06T17:35:14.822Z,19.55
2019-04-06T17:37:07.978Z,19.48
2019-04-06T17:38:07.971Z,19.39
2019-04-06T17:40:01.248Z,19.44
2019-04-06T17:41:01.643Z,19.38
2019-04-06T17:42:54.874Z,19.34
2019-04-06T17:43:54.529Z,19.30
2019-04-06T17:45:47.711Z,19.27
2019-04-06T17:46:48.086Z,19.23
2019-04-06T17:48:40.848Z,19.26
2019-04-06T17:49:40.892Z,19.19
2019-04-06T17:51:34.194Z,19.30
2019-04-06T17:52:34.100Z,19.30
2019-04-06T17:54:27.655Z,19.26
2019-04-06T17:55:27.302Z,19.24
2019-04-06T17:57:20.483Z,19.24
2019-04-06T17:58:20.774Z,19.23
2019-04-06T18:00:13.670Z,19.15
2019-04-06T18:01:13.669Z,19.19
2019-04-06T18:03:06.866Z,19.22
2019-04-06T18:04:06.889Z,19.16
2019-04-06T18:06:00.259Z,19.16
2019-04-06T18:07:00.113Z,19.08
2019-04-06T18:08:53.273Z,19.04
2019-04-06T18:09:53.288Z,19.08
2019-04-06T18:11:46.474Z,19.04
2019-04-06T18:12:46.475Z,19.09
2019-04-06T18:14:39.667Z,19.04
2019-04-06T18:15:39.676Z,19.05
2019-04-06T18:17:32.858Z,19.15
2019-04-06T18:18:32.863Z,19.01
2019-04-06T18:20:26.106Z,18.98
2019-04-06T18:21:26.117Z,18.92
2019-04-06T18:23:19.688Z,18.89
2019-04-06T18:24:19.531Z,18.86
2019-04-06T18:26:12.557Z,18.94
2019-04-06T18:27:12.864Z,18.89
2019-04-06T18:29:06.131Z,18.86
2019-04-06T18:30:05.687Z,18.81
2019-04-06T18:31:59.186Z,18.83
2019-04-06T18:33:02.235Z,18.76
2019-04-06T18:34:52.510Z,18.78
2019-04-06T18:35:52.206Z,18.81
2019-04-06T18:37:45.870Z,18.76
2019-04-06T18:38:45.383Z,18.70
2019-04-06T18:40:38.623Z,18.78
2019-04-06T18:41:38.641Z,18.73
2019-04-06T18:43:31.901Z,18.70
2019-04-06T18:44:32.037Z,18.63
2019-04-06T18:46:25.072Z,18.60
2019-04-06T18:47:25.693Z,18.66
2019-04-06T18:49:18.316Z,18.67
2019-04-06T18:50:18.426Z,18.60
2019-04-06T18:52:11.562Z,18.64
2019-04-06T18:53:11.556Z,18.66